Big Brook, Canada
Current Conditions -  °F | °C
As of 7:00 AM on Sunday 26 Oct 2014 (Local Time) from CYAY Reporting Station
Overcast Overcast  
Wind Chill: -1°   Ceiling: 2700
Heat Index:   Visibility: 9mi
Dew Point:   Wind: 16mph
Humidity: 81%   Direction: 50°NE
Pressure: 29.73"   Gusts: NA
Location:  51.51°N, 56.14°W
Report Text: CYAY 260900Z AUTO 05014KT 9SM OVC027 04/01 A2973 RMK SLP069
Loading
Personal Weather Stations






























Interactive Weather Map
Tropical Storm Tracking
New forecast layout! Learn more

10-Day Weather Forecast

Advertisements
Track Severe Weather on mobile